WAT5894 EKBI-EKCH
Flight info
| Callsign | WAT5894 |
|---|---|
| Flight time | 0h 29m |
| Altitude | 13000 |
| Route | ABINO T56 TESPI |
| Aircraft | A388/J-SADE2E3FGHIJ3J4J5M1RWXY/LB1D1 |
Departure
| Time | 2026-04-22 19:46 |
|---|---|
| Airport | Billund Airport (EKBI) |
Arrival
| Time | 2026-04-22 20:15 |
|---|---|
| Airport | Copenhagen Kastrup Airport (EKCH) |
| Time | Latitude | Longitude | Altitude | Speed | Heading |
|---|---|---|---|---|---|
| 2026-04-22 19:21 | 55.73777 | 9.13686 | 221 ft | 0 kts | 179° |
| 2026-04-22 19:30 | 55.73779 | 9.13686 | 221 ft | 1 kts | 179° |
| 2026-04-22 19:30 | 55.73785 | 9.13686 | 221 ft | 1 kts | 179° |
| 2026-04-22 19:31 | 55.73792 | 9.13686 | 226 ft | 1 kts | 179° |
| 2026-04-22 19:31 | 55.73800 | 9.13683 | 224 ft | 3 kts | 168° |
| 2026-04-22 19:31 | 55.73815 | 9.13663 | 228 ft | 3 kts | 131° |
| 2026-04-22 19:31 | 55.73820 | 9.13631 | 222 ft | 3 kts | 97° |
| 2026-04-22 19:32 | 55.73820 | 9.13633 | 222 ft | 3 kts | 87° |
| 2026-04-22 19:32 | 55.73822 | 9.13673 | 231 ft | 3 kts | 84° |
| 2026-04-22 19:32 | 55.73824 | 9.13714 | 226 ft | 3 kts | 85° |
| 2026-04-22 19:32 | 55.73826 | 9.13745 | 223 ft | 0 kts | 86° |
| 2026-04-22 19:37 | 55.73826 | 9.13742 | 221 ft | 1 kts | 86° |
| 2026-04-22 19:38 | 55.73825 | 9.13724 | 227 ft | 2 kts | 86° |
| 2026-04-22 19:38 | 55.73824 | 9.13702 | 224 ft | 2 kts | 86° |
| 2026-04-22 19:38 | 55.73823 | 9.13673 | 222 ft | 3 kts | 86° |
| 2026-04-22 19:38 | 55.73823 | 9.13662 | 222 ft | 0 kts | 86° |
| 2026-04-22 19:39 | 55.73823 | 9.13663 | 222 ft | 1 kts | 86° |
| 2026-04-22 19:39 | 55.73824 | 9.13704 | 224 ft | 6 kts | 87° |
| 2026-04-22 19:39 | 55.73827 | 9.13824 | 221 ft | 15 kts | 87° |
| 2026-04-22 19:40 | 55.73840 | 9.14052 | 221 ft | 21 kts | 79° |
| 2026-04-22 19:40 | 55.73892 | 9.14301 | 226 ft | 11 kts | 52° |
| 2026-04-22 19:40 | 55.73895 | 9.14308 | 226 ft | 0 kts | 52° |
| 2026-04-22 19:40 | 55.73910 | 9.14341 | 224 ft | 8 kts | 50° |
| 2026-04-22 19:41 | 55.73969 | 9.14452 | 226 ft | 16 kts | 43° |
| 2026-04-22 19:41 | 55.74061 | 9.14483 | 221 ft | 14 kts | 8° |
| 2026-04-22 19:41 | 55.74154 | 9.14511 | 225 ft | 9 kts | 48° |
| 2026-04-22 19:41 | 55.74183 | 9.14648 | 223 ft | 15 kts | 87° |
| 2026-04-22 19:42 | 55.74190 | 9.14898 | 221 ft | 25 kts | 86° |
| 2026-04-22 19:42 | 55.74205 | 9.15340 | 221 ft | 47 kts | 86° |
| 2026-04-22 19:42 | 55.74228 | 9.16003 | 221 ft | 56 kts | 86° |
| 2026-04-22 19:42 | 55.74248 | 9.16658 | 221 ft | 51 kts | 86° |
| 2026-04-22 19:43 | 55.74283 | 9.17806 | 224 ft | 42 kts | 87° |
| 2026-04-22 19:43 | 55.74235 | 9.18125 | 229 ft | 0 kts | 158° |
| 2026-04-22 19:43 | 55.74233 | 9.18126 | 229 ft | 0 kts | 158° |
| 2026-04-22 19:44 | 55.74232 | 9.18127 | 228 ft | 1 kts | 158° |
| 2026-04-22 19:44 | 55.74207 | 9.18140 | 225 ft | 6 kts | 168° |
| 2026-04-22 19:45 | 55.74156 | 9.18139 | 224 ft | 7 kts | 211° |
| 2026-04-22 19:45 | 55.74123 | 9.18073 | 224 ft | 6 kts | 257° |
| 2026-04-22 19:45 | 55.74122 | 9.18057 | 223 ft | 0 kts | 266° |
| 2026-04-22 19:46 | 55.74102 | 9.17427 | 226 ft | 100 kts | 266° |
| 2026-04-22 19:46 | 55.74054 | 9.15767 | 228 ft | 163 kts | 268° |
| 2026-04-22 19:46 | 55.73955 | 9.13633 | 605 ft | 181 kts | 265° |
| 2026-04-22 19:46 | 55.73841 | 9.11423 | 1304 ft | 174 kts | 270° |
| 2026-04-22 19:47 | 55.73878 | 9.09385 | 2080 ft | 157 kts | 290° |
| 2026-04-22 19:47 | 55.74313 | 9.07704 | 2872 ft | 150 kts | 308° |
| 2026-04-22 19:47 | 55.74799 | 9.06763 | 3147 ft | 161 kts | 321° |
| 2026-04-22 19:47 | 55.76279 | 9.05850 | 3464 ft | 191 kts | 1° |
| 2026-04-22 19:48 | 55.77612 | 9.06848 | 3863 ft | 226 kts | 34° |
| 2026-04-22 19:48 | 55.78587 | 9.09286 | 4362 ft | 261 kts | 64° |
| 2026-04-22 19:48 | 55.79060 | 9.12462 | 5151 ft | 272 kts | 74° |
| 2026-04-22 19:48 | 55.79455 | 9.15770 | 6124 ft | 274 kts | 72° |
| 2026-04-22 19:49 | 55.79951 | 9.19046 | 7085 ft | 275 kts | 69° |
| 2026-04-22 19:49 | 55.80551 | 9.22300 | 7997 ft | 278 kts | 67° |
| 2026-04-22 19:49 | 55.81217 | 9.25552 | 8923 ft | 281 kts | 66° |
| 2026-04-22 19:49 | 55.81915 | 9.28818 | 9866 ft | 284 kts | 66° |
| 2026-04-22 19:50 | 55.82624 | 9.32100 | 10672 ft | 290 kts | 66° |
| 2026-04-22 19:50 | 55.83377 | 9.35572 | 11009 ft | 312 kts | 66° |
| 2026-04-22 19:50 | 55.84181 | 9.39303 | 11258 ft | 333 kts | 66° |
| 2026-04-22 19:50 | 55.85007 | 9.43171 | 11916 ft | 339 kts | 67° |
| 2026-04-22 19:51 | 55.85852 | 9.47145 | 12277 ft | 343 kts | 67° |
| 2026-04-22 19:51 | 55.86411 | 9.49778 | 12333 ft | 343 kts | 67° |
| 2026-04-22 19:51 | 55.87257 | 9.53771 | 12326 ft | 342 kts | 67° |
| 2026-04-22 19:51 | 55.88097 | 9.57746 | 12317 ft | 342 kts | 67° |
| 2026-04-22 19:52 | 55.88929 | 9.61681 | 12325 ft | 342 kts | 67° |
| 2026-04-22 19:52 | 55.89771 | 9.65669 | 12318 ft | 342 kts | 67° |
| 2026-04-22 19:52 | 55.90608 | 9.69637 | 12307 ft | 342 kts | 67° |
| 2026-04-22 19:52 | 55.91310 | 9.73649 | 12306 ft | 344 kts | 78° |
| 2026-04-22 19:53 | 55.91279 | 9.77952 | 12304 ft | 351 kts | 99° |
| 2026-04-22 19:53 | 55.90629 | 9.82164 | 12296 ft | 353 kts | 104° |
| 2026-04-22 19:53 | 55.89903 | 9.86337 | 12302 ft | 353 kts | 105° |
| 2026-04-22 19:53 | 55.89162 | 9.90512 | 12301 ft | 353 kts | 105° |
| 2026-04-22 19:54 | 55.88435 | 9.94634 | 12301 ft | 353 kts | 105° |
| 2026-04-22 19:54 | 55.87702 | 9.98806 | 12296 ft | 353 kts | 105° |
| 2026-04-22 19:54 | 55.87235 | 10.03060 | 12298 ft | 348 kts | 88° |
| 2026-04-22 19:54 | 55.87633 | 10.07281 | 12294 ft | 343 kts | 66° |
| 2026-04-22 19:55 | 55.88852 | 10.10815 | 12439 ft | 339 kts | 44° |
| 2026-04-22 19:55 | 55.90590 | 10.13681 | 12915 ft | 342 kts | 46° |
| 2026-04-22 19:55 | 55.91883 | 10.17275 | 13240 ft | 348 kts | 65° |
| 2026-04-22 19:55 | 55.92394 | 10.21508 | 13296 ft | 353 kts | 86° |
| 2026-04-22 19:56 | 55.92035 | 10.25789 | 13290 ft | 357 kts | 107° |
| 2026-04-22 19:56 | 55.90913 | 10.29777 | 13294 ft | 360 kts | 119° |
| 2026-04-22 19:56 | 55.89619 | 10.33621 | 13291 ft | 360 kts | 117° |
| 2026-04-22 19:56 | 55.88458 | 10.37509 | 13287 ft | 359 kts | 114° |
| 2026-04-22 19:57 | 55.87416 | 10.41563 | 13287 ft | 358 kts | 111° |
| 2026-04-22 19:57 | 55.86465 | 10.45674 | 13289 ft | 358 kts | 109° |
| 2026-04-22 19:57 | 55.85555 | 10.49814 | 13288 ft | 358 kts | 109° |
| 2026-04-22 19:57 | 55.84682 | 10.53861 | 13288 ft | 358 kts | 109° |
| 2026-04-22 19:58 | 55.83788 | 10.58004 | 13287 ft | 358 kts | 109° |
| 2026-04-22 19:58 | 55.82890 | 10.62151 | 13286 ft | 358 kts | 109° |
| 2026-04-22 19:58 | 55.81990 | 10.66288 | 13289 ft | 358 kts | 109° |
| 2026-04-22 19:58 | 55.81097 | 10.70378 | 13286 ft | 358 kts | 109° |
| 2026-04-22 19:59 | 55.80198 | 10.74488 | 13285 ft | 358 kts | 109° |
| 2026-04-22 20:00 | 55.74763 | 10.99139 | 12881 ft | 357 kts | 109° |
| 2026-04-22 20:00 | 55.73856 | 11.03227 | 12632 ft | 356 kts | 109° |
| 2026-04-22 20:01 | 55.72945 | 11.07322 | 12373 ft | 355 kts | 109° |
| 2026-04-22 20:01 | 55.72037 | 11.11395 | 12116 ft | 354 kts | 109° |
| 2026-04-22 20:01 | 55.71131 | 11.15456 | 11851 ft | 353 kts | 109° |
| 2026-04-22 20:01 | 55.70235 | 11.19458 | 11614 ft | 353 kts | 109° |
| 2026-04-22 20:02 | 55.69321 | 11.23536 | 11372 ft | 352 kts | 109° |
| 2026-04-22 20:02 | 55.68427 | 11.27514 | 11120 ft | 352 kts | 109° |
| 2026-04-22 20:02 | 55.67519 | 11.31552 | 10902 ft | 349 kts | 108° |
| 2026-04-22 20:02 | 55.66625 | 11.35511 | 10803 ft | 339 kts | 108° |
| 2026-04-22 20:03 | 55.65773 | 11.39270 | 10684 ft | 325 kts | 108° |
| 2026-04-22 20:03 | 55.64951 | 11.42892 | 10563 ft | 313 kts | 108° |
| 2026-04-22 20:03 | 55.64147 | 11.46436 | 10418 ft | 302 kts | 108° |
| 2026-04-22 20:03 | 55.63376 | 11.49828 | 10320 ft | 291 kts | 108° |
| 2026-04-22 20:04 | 55.62641 | 11.53062 | 10150 ft | 283 kts | 108° |
| 2026-04-22 20:04 | 55.61901 | 11.56328 | 9764 ft | 285 kts | 108° |
| 2026-04-22 20:04 | 55.61162 | 11.59593 | 9519 ft | 294 kts | 108° |
| 2026-04-22 20:04 | 55.60391 | 11.62983 | 9224 ft | 298 kts | 108° |
| 2026-04-22 20:05 | 55.59612 | 11.66391 | 8920 ft | 297 kts | 108° |
| 2026-04-22 20:05 | 55.58847 | 11.69722 | 8584 ft | 293 kts | 108° |
| 2026-04-22 20:05 | 55.58066 | 11.73126 | 7995 ft | 301 kts | 108° |
| 2026-04-22 20:05 | 55.57280 | 11.76544 | 7771 ft | 298 kts | 108° |
| 2026-04-22 20:06 | 55.56503 | 11.79916 | 7504 ft | 297 kts | 108° |
| 2026-04-22 20:06 | 55.55724 | 11.83285 | 7188 ft | 293 kts | 108° |
| 2026-04-22 20:06 | 55.54963 | 11.86575 | 6888 ft | 290 kts | 108° |
| 2026-04-22 20:06 | 55.54206 | 11.89846 | 6580 ft | 286 kts | 108° |
| 2026-04-22 20:07 | 55.53454 | 11.93094 | 6292 ft | 283 kts | 108° |
| 2026-04-22 20:07 | 55.52710 | 11.96299 | 6005 ft | 280 kts | 108° |
| 2026-04-22 20:07 | 55.51982 | 11.99431 | 5702 ft | 277 kts | 108° |
| 2026-04-22 20:07 | 55.51250 | 12.02582 | 5413 ft | 275 kts | 108° |
| 2026-04-22 20:08 | 55.50533 | 12.05660 | 5128 ft | 273 kts | 108° |
| 2026-04-22 20:08 | 55.49809 | 12.08760 | 4828 ft | 271 kts | 109° |
| 2026-04-22 20:08 | 55.49101 | 12.11794 | 4549 ft | 268 kts | 109° |
| 2026-04-22 20:08 | 55.48391 | 12.14831 | 4260 ft | 267 kts | 109° |
| 2026-04-22 20:09 | 55.47680 | 12.17863 | 3972 ft | 265 kts | 109° |
| 2026-04-22 20:09 | 55.46975 | 12.20868 | 3658 ft | 264 kts | 109° |
| 2026-04-22 20:09 | 55.46280 | 12.23827 | 3390 ft | 263 kts | 110° |
| 2026-04-22 20:09 | 55.45581 | 12.26797 | 3109 ft | 262 kts | 110° |
| 2026-04-22 20:10 | 55.44911 | 12.29806 | 3006 ft | 262 kts | 101° |
| 2026-04-22 20:10 | 55.44858 | 12.32937 | 2974 ft | 251 kts | 76° |
| 2026-04-22 20:10 | 55.45176 | 12.35879 | 2923 ft | 242 kts | 75° |
| 2026-04-22 20:10 | 55.45518 | 12.38718 | 2842 ft | 230 kts | 66° |
| 2026-04-22 20:11 | 55.46248 | 12.41118 | 2763 ft | 214 kts | 46° |
| 2026-04-22 20:11 | 55.47219 | 12.43007 | 2547 ft | 203 kts | 38° |
| 2026-04-22 20:11 | 55.48246 | 12.44646 | 2199 ft | 200 kts | 34° |
| 2026-04-22 20:11 | 55.49308 | 12.46264 | 2021 ft | 202 kts | 35° |
| 2026-04-22 20:12 | 55.50358 | 12.47897 | 1997 ft | 201 kts | 35° |
| 2026-04-22 20:12 | 55.51376 | 12.49472 | 1977 ft | 185 kts | 34° |
| 2026-04-22 20:12 | 55.51981 | 12.50415 | 2003 ft | 167 kts | 34° |
| 2026-04-22 20:12 | 55.53147 | 12.52196 | 1933 ft | 168 kts | 34° |
| 2026-04-22 20:13 | 55.54009 | 12.53541 | 1717 ft | 158 kts | 34° |
| 2026-04-22 20:13 | 55.54799 | 12.54764 | 1475 ft | 143 kts | 33° |
| 2026-04-22 20:13 | 55.55541 | 12.55905 | 1296 ft | 141 kts | 33° |
| 2026-04-22 20:13 | 55.56264 | 12.57027 | 1099 ft | 138 kts | 33° |
| 2026-04-22 20:14 | 55.56992 | 12.58149 | 916 ft | 141 kts | 33° |
| 2026-04-22 20:14 | 55.57739 | 12.59313 | 718 ft | 145 kts | 36° |
| 2026-04-22 20:14 | 55.58490 | 12.60475 | 529 ft | 143 kts | 36° |
| 2026-04-22 20:14 | 55.59243 | 12.61642 | 332 ft | 145 kts | 37° |
| 2026-04-22 20:15 | 55.60004 | 12.62817 | 146 ft | 145 kts | 37° |
| 2026-04-22 20:15 | 55.60751 | 12.63987 | 27 ft | 138 kts | 38° |
| 2026-04-22 20:15 | 55.61347 | 12.64905 | 27 ft | 83 kts | 41° |
| 2026-04-22 20:15 | 55.61643 | 12.65361 | 23 ft | 41 kts | 43° |
| 2026-04-22 20:16 | 55.61784 | 12.65556 | 25 ft | 10 kts | 359° |
| 2026-04-22 20:16 | 55.61826 | 12.65504 | 28 ft | 8 kts | 296° |
| 2026-04-22 20:16 | 55.61861 | 12.65405 | 23 ft | 11 kts | 303° |
| 2026-04-22 20:16 | 55.61906 | 12.65282 | 23 ft | 12 kts | 303° |
| 2026-04-22 20:17 | 55.61952 | 12.65158 | 24 ft | 12 kts | 303° |
| 2026-04-22 20:17 | 55.61978 | 12.65087 | 24 ft | 0 kts | 303° |
| 2026-04-22 20:18 | 55.61980 | 12.65083 | 24 ft | 2 kts | 303° |
| 2026-04-22 20:19 | 55.61994 | 12.65044 | 24 ft | 5 kts | 305° |
| 2026-04-22 20:19 | 55.62019 | 12.65010 | 26 ft | 4 kts | 348° |
| 2026-04-22 20:19 | 55.62056 | 12.65011 | 26 ft | 6 kts | 21° |
| 2026-04-22 20:19 | 55.62106 | 12.65063 | 24 ft | 10 kts | 33° |
| 2026-04-22 20:20 | 55.62177 | 12.65145 | 25 ft | 14 kts | 33° |
| 2026-04-22 20:20 | 55.62270 | 12.65202 | 25 ft | 15 kts | 8° |
| 2026-04-22 20:20 | 55.62349 | 12.65151 | 23 ft | 9 kts | 284° |
| 2026-04-22 20:20 | 55.62354 | 12.65100 | 22 ft | 0 kts | 277° |